sensor_id;sensor_type;location;lat;lon;timestamp;pressure;altitude;pressure_sealevel;temperature;humidity
38716;BME280;24833;49.324;8.694;2023-11-19T00:01:59;99730.06;;;7.85;100.00
38716;BME280;24833;49.324;8.694;2023-11-19T00:04:27;99733.38;;;7.87;100.00
38716;BME280;24833;49.324;8.694;2023-11-19T00:06:54;99736.69;;;7.89;100.00
38716;BME280;24833;49.324;8.694;2023-11-19T00:09:21;99730.19;;;7.92;100.00
38716;BME280;24833;49.324;8.694;2023-11-19T00:11:48;99731.63;;;7.95;100.00
38716;BME280;24833;49.324;8.694;2023-11-19T00:14:18;99734.97;;;7.97;100.00
38716;BME280;24833;49.324;8.694;2023-11-19T00:16:44;99729.28;;;8.00;100.00
38716;BME280;24833;49.324;8.694;2023-11-19T00:19:11;99713.97;;;8.02;100.00
38716;BME280;24833;49.324;8.694;2023-11-19T00:21:39;99717.28;;;8.04;100.00
38716;BME280;24833;49.324;8.694;2023-11-19T00:24:08;99711.59;;;8.07;100.00
38716;BME280;24833;49.324;8.694;2023-11-19T00:26:35;99717.53;;;8.09;100.00
38716;BME280;24833;49.324;8.694;2023-11-19T00:29:02;99709.22;;;8.12;100.00
38716;BME280;24833;49.324;8.694;2023-11-19T00:31:29;99721.50;;;8.13;100.00
38716;BME280;24833;49.324;8.694;2023-11-19T00:33:57;99716.81;;;8.15;100.00
38716;BME280;24833;49.324;8.694;2023-11-19T00:36:25;99703.38;;;8.16;100.00
38716;BME280;24833;49.324;8.694;2023-11-19T00:38:52;99694.19;;;8.19;100.00
38716;BME280;24833;49.324;8.694;2023-11-19T00:41:19;99696.66;;;8.20;100.00
38716;BME280;24833;49.324;8.694;2023-11-19T00:43:46;99690.16;;;8.23;100.00
38716;BME280;24833;49.324;8.694;2023-11-19T00:46:14;99678.53;;;8.24;100.00
38716;BME280;24833;49.324;8.694;2023-11-19T00:48:41;99687.13;;;8.26;100.00
38716;BME280;24833;49.324;8.694;2023-11-19T00:51:08;99677.13;;;8.28;100.00
38716;BME280;24833;49.324;8.694;2023-11-19T00:53:35;99678.81;;;8.29;100.00
38716;BME280;24833;49.324;8.694;2023-11-19T00:56:02;99686.59;;;8.31;100.00
38716;BME280;24833;49.324;8.694;2023-11-19T00:58:29;99679.25;;;8.33;100.00
38716;BME280;24833;49.324;8.694;2023-11-19T01:00:56;99693.19;;;8.35;100.00
38716;BME280;24833;49.324;8.694;2023-11-19T01:03:24;99692.19;;;8.36;100.00
38716;BME280;24833;49.324;8.694;2023-11-19T01:05:51;99686.72;;;8.37;100.00
38716;BME280;24833;49.324;8.694;2023-11-19T01:08:20;99698.00;;;8.39;100.00
38716;BME280;24833;49.324;8.694;2023-11-19T01:10:47;99696.97;;;8.40;100.00
38716;BME280;24833;49.324;8.694;2023-11-19T01:13:14;99694.94;;;8.42;100.00
38716;BME280;24833;49.324;8.694;2023-11-19T01:15:42;99686.81;;;8.44;100.00
38716;BME280;24833;49.324;8.694;2023-11-19T01:18:10;99677.81;;;8.45;100.00
38716;BME280;24833;49.324;8.694;2023-11-19T01:20:37;99671.47;;;8.46;100.00
38716;BME280;24833;49.324;8.694;2023-11-19T01:23:05;99674.78;;;8.48;100.00
38716;BME280;24833;49.324;8.694;2023-11-19T01:25:32;99683.56;;;8.49;100.00
38716;BME280;24833;49.324;8.694;2023-11-19T01:27:59;99682.59;;;8.50;100.00
38716;BME280;24833;49.324;8.694;2023-11-19T01:30:26;99687.72;;;8.51;100.00
38716;BME280;24833;49.324;8.694;2023-11-19T01:32:53;99682.22;;;8.53;100.00
38716;BME280;24833;49.324;8.694;2023-11-19T01:35:20;99688.16;;;8.55;100.00
38716;BME280;24833;49.324;8.694;2023-11-19T01:37:50;99689.81;;;8.56;100.00
38716;BME280;24833;49.324;8.694;2023-11-19T01:40:21;99686.16;;;8.57;100.00
38716;BME280;24833;49.324;8.694;2023-11-19T01:42:49;99688.63;;;8.58;100.00
38716;BME280;24833;49.324;8.694;2023-11-19T01:45:28;99684.97;;;8.59;100.00
38716;BME280;24833;49.324;8.694;2023-11-19T01:48:00;99691.94;;;8.60;100.00
38716;BME280;24833;49.324;8.694;2023-11-19T01:50:29;99698.91;;;8.61;100.00
38716;BME280;24833;49.324;8.694;2023-11-19T01:52:57;99687.22;;;8.62;100.00
38716;BME280;24833;49.324;8.694;2023-11-19T01:55:26;99687.91;;;8.64;100.00
38716;BME280;24833;49.324;8.694;2023-11-19T01:57:59;99679.72;;;8.66;100.00
38716;BME280;24833;49.324;8.694;2023-11-19T02:00:26;99685.88;;;8.66;100.00
38716;BME280;24833;49.324;8.694;2023-11-19T02:02:53;99688.34;;;8.68;100.00
38716;BME280;24833;49.324;8.694;2023-11-19T02:05:21;99667.03;;;8.68;100.00
38716;BME280;24833;49.324;8.694;2023-11-19T02:07:50;99665.03;;;8.70;100.00
38716;BME280;24833;49.324;8.694;2023-11-19T02:10:18;99672.00;;;8.71;100.00
38716;BME280;24833;49.324;8.694;2023-11-19T02:12:46;99664.84;;;8.71;100.00
38716;BME280;24833;49.324;8.694;2023-11-19T02:15:13;99657.69;;;8.72;100.00
38716;BME280;24833;49.324;8.694;2023-11-19T02:17:40;99650.34;;;8.74;100.00
38716;BME280;24833;49.324;8.694;2023-11-19T02:20:08;99655.47;;;8.76;100.00
38716;BME280;24833;49.324;8.694;2023-11-19T02:22:38;99659.81;;;8.77;100.00
38716;BME280;24833;49.324;8.694;2023-11-19T02:25:08;99661.44;;;8.78;100.00
38716;BME280;24833;49.324;8.694;2023-11-19T02:27:54;99665.75;;;8.79;100.00
38716;BME280;24833;49.324;8.694;2023-11-19T02:30:26;99664.53;;;8.81;100.00
38716;BME280;24833;49.324;8.694;2023-11-19T02:32:57;99652.06;;;8.82;100.00
38716;BME280;24833;49.324;8.694;2023-11-19T02:35:26;99634.06;;;8.84;100.00
38716;BME280;24833;49.324;8.694;2023-11-19T02:37:54;99617.91;;;8.85;100.00
38716;BME280;24833;49.324;8.694;2023-11-19T02:40:21;99625.91;;;8.85;100.00
38716;BME280;24833;49.324;8.694;2023-11-19T02:42:54;99624.69;;;8.88;100.00
38716;BME280;24833;49.324;8.694;2023-11-19T02:45:24;99611.16;;;8.89;100.00
38716;BME280;24833;49.324;8.694;2023-11-19T02:47:52;99608.50;;;8.89;100.00
38716;BME280;24833;49.324;8.694;2023-11-19T02:50:20;99628.63;;;8.92;100.00
38716;BME280;24833;49.324;8.694;2023-11-19T02:52:55;99623.94;;;8.94;100.00
38716;BME280;24833;49.324;8.694;2023-11-19T02:55:24;99628.06;;;8.96;100.00
38716;BME280;24833;49.324;8.694;2023-11-19T02:57:52;99616.41;;;8.97;100.00
38716;BME280;24833;49.324;8.694;2023-11-19T03:00:26;99636.50;;;9.00;100.00
38716;BME280;24833;49.324;8.694;2023-11-19T03:03:03;99628.31;;;9.01;100.00
38716;BME280;24833;49.324;8.694;2023-11-19T03:05:46;99618.94;;;9.06;100.00
38716;BME280;24833;49.324;8.694;2023-11-19T03:08:15;99619.56;;;9.08;100.00
38716;BME280;24833;49.324;8.694;2023-11-19T03:10:45;99608.53;;;9.11;100.00
38716;BME280;24833;49.324;8.694;2023-11-19T03:13:14;99601.19;;;9.13;100.00
38716;BME280;24833;49.324;8.694;2023-11-19T03:15:41;99602.63;;;9.15;100.00
38716;BME280;24833;49.324;8.694;2023-11-19T03:18:09;99594.47;;;9.17;100.00
38716;BME280;24833;49.324;8.694;2023-11-19T03:20:36;99593.06;;;9.21;100.00
38716;BME280;24833;49.324;8.694;2023-11-19T03:23:03;99591.88;;;9.23;100.00
38716;BME280;24833;49.324;8.694;2023-11-19T03:25:30;99589.00;;;9.25;100.00
38716;BME280;24833;49.324;8.694;2023-11-19T03:28:01;99593.94;;;9.28;100.00
38716;BME280;24833;49.324;8.694;2023-11-19T03:30:31;99585.78;;;9.30;100.00
38716;BME280;24833;49.324;8.694;2023-11-19T03:33:01;99583.72;;;9.32;100.00
38716;BME280;24833;49.324;8.694;2023-11-19T03:35:28;99577.19;;;9.34;100.00
38716;BME280;24833;49.324;8.694;2023-11-19T03:37:56;99566.97;;;9.38;100.00
38716;BME280;24833;49.324;8.694;2023-11-19T03:40:23;99570.25;;;9.40;100.00
38716;BME280;24833;49.324;8.694;2023-11-19T03:42:53;99578.88;;;9.42;100.00
38716;BME280;24833;49.324;8.694;2023-11-19T03:45:20;99580.34;;;9.44;100.00
38716;BME280;24833;49.324;8.694;2023-11-19T03:47:48;99578.31;;;9.46;100.00
38716;BME280;24833;49.324;8.694;2023-11-19T03:50:17;99574.44;;;9.49;100.00
38716;BME280;24833;49.324;8.694;2023-11-19T03:52:47;99561.75;;;9.51;100.00
38716;BME280;24833;49.324;8.694;2023-11-19T03:55:15;99570.16;;;9.54;100.00
38716;BME280;24833;49.324;8.694;2023-11-19T03:57:42;99557.66;;;9.55;100.00
38716;BME280;24833;49.324;8.694;2023-11-19T04:00:10;99564.47;;;9.58;100.00
38716;BME280;24833;49.324;8.694;2023-11-19T04:02:40;99558.94;;;9.59;100.00
38716;BME280;24833;49.324;8.694;2023-11-19T04:05:08;99563.84;;;9.62;100.00
38716;BME280;24833;49.324;8.694;2023-11-19T04:07:36;99564.69;;;9.63;100.00
38716;BME280;24833;49.324;8.694;2023-11-19T04:10:05;99557.34;;;9.65;100.00
38716;BME280;24833;49.324;8.694;2023-11-19T04:12:32;99560.63;;;9.67;100.00
38716;BME280;24833;49.324;8.694;2023-11-19T04:14:59;99555.91;;;9.69;100.00
38716;BME280;24833;49.324;8.694;2023-11-19T04:17:28;99547.53;;;9.72;100.00
38716;BME280;24833;49.324;8.694;2023-11-19T04:19:55;99550.81;;;9.74;100.00
38716;BME280;24833;49.324;8.694;2023-11-19T04:22:22;99556.78;;;9.76;100.00
38716;BME280;24833;49.324;8.694;2023-11-19T04:24:51;99554.75;;;9.78;100.00
38716;BME280;24833;49.324;8.694;2023-11-19T04:27:18;99552.72;;;9.80;100.00
38716;BME280;24833;49.324;8.694;2023-11-19T04:29:45;99550.66;;;9.82;100.00
38716;BME280;24833;49.324;8.694;2023-11-19T04:32:14;99557.47;;;9.85;100.00
38716;BME280;24833;49.324;8.694;2023-11-19T04:34:41;99573.25;;;9.86;100.00
38716;BME280;24833;49.324;8.694;2023-11-19T04:37:08;99568.75;;;9.87;100.00
38716;BME280;24833;49.324;8.694;2023-11-19T04:39:39;99564.84;;;9.89;100.00
38716;BME280;24833;49.324;8.694;2023-11-19T04:42:06;99565.50;;;9.91;100.00
38716;BME280;24833;49.324;8.694;2023-11-19T04:44:33;99555.44;;;9.93;100.00
38716;BME280;24833;49.324;8.694;2023-11-19T04:47:01;99564.06;;;9.95;100.00
38716;BME280;24833;49.324;8.694;2023-11-19T04:49:28;99572.72;;;9.97;100.00
38716;BME280;24833;49.324;8.694;2023-11-19T04:51:55;99576.22;;;9.98;100.00
38716;BME280;24833;49.324;8.694;2023-11-19T04:54:22;99560.00;;;9.99;100.00
38716;BME280;24833;49.324;8.694;2023-11-19T04:56:50;99560.63;;;10.01;100.00
38716;BME280;24833;49.324;8.694;2023-11-19T04:59:17;99545.25;;;10.03;100.00
38716;BME280;24833;49.324;8.694;2023-11-19T05:01:47;99539.72;;;10.05;100.00
38716;BME280;24833;49.324;8.694;2023-11-19T05:04:14;99551.00;;;10.07;100.00
38716;BME280;24833;49.324;8.694;2023-11-19T05:06:42;99548.97;;;10.09;100.00
38716;BME280;24833;49.324;8.694;2023-11-19T05:09:09;99562.94;;;10.11;100.00
38716;BME280;24833;49.324;8.694;2023-11-19T05:11:38;99548.56;;;10.12;100.00
38716;BME280;24833;49.324;8.694;2023-11-19T05:14:17;99560.69;;;10.15;100.00
38716;BME280;24833;49.324;8.694;2023-11-19T05:16:47;99559.66;;;10.16;100.00
38716;BME280;24833;49.324;8.694;2023-11-19T05:19:14;99561.94;;;10.19;100.00
38716;BME280;24833;49.324;8.694;2023-11-19T05:21:42;99549.44;;;10.19;100.00
38716;BME280;24833;49.324;8.694;2023-11-19T05:24:10;99553.75;;;10.20;100.00
38716;BME280;24833;49.324;8.694;2023-11-19T05:26:38;99554.34;;;10.22;100.00
38716;BME280;24833;49.324;8.694;2023-11-19T05:29:06;99556.06;;;10.23;100.00
38716;BME280;24833;49.324;8.694;2023-11-19T05:31:33;99558.53;;;10.25;100.00
38716;BME280;24833;49.324;8.694;2023-11-19T05:34:03;99552.16;;;10.26;100.00
38716;BME280;24833;49.324;8.694;2023-11-19T05:36:31;99552.97;;;10.26;100.00
38716;BME280;24833;49.324;8.694;2023-11-19T05:38:58;99558.94;;;10.28;100.00
38716;BME280;24833;49.324;8.694;2023-11-19T05:41:25;99560.56;;;10.29;100.00
38716;BME280;24833;49.324;8.694;2023-11-19T05:43:52;99557.72;;;10.31;100.00
38716;BME280;24833;49.324;8.694;2023-11-19T05:46:19;99551.97;;;10.34;100.00
38716;BME280;24833;49.324;8.694;2023-11-19T05:48:47;99553.63;;;10.35;100.00
38716;BME280;24833;49.324;8.694;2023-11-19T05:51:15;99556.13;;;10.36;100.00
38716;BME280;24833;49.324;8.694;2023-11-19T05:53:43;99552.41;;;10.38;100.00
38716;BME280;24833;49.324;8.694;2023-11-19T05:56:10;99554.06;;;10.39;100.00
38716;BME280;24833;49.324;8.694;2023-11-19T05:58:37;99543.19;;;10.40;100.00
38716;BME280;24833;49.324;8.694;2023-11-19T06:01:06;99542.97;;;10.42;100.00
38716;BME280;24833;49.324;8.694;2023-11-19T06:03:35;99540.94;;;10.44;100.00
38716;BME280;24833;49.324;8.694;2023-11-19T06:06:03;99532.94;;;10.44;100.00
38716;BME280;24833;49.324;8.694;2023-11-19T06:08:32;99539.72;;;10.46;100.00
38716;BME280;24833;49.324;8.694;2023-11-19T06:10:59;99527.19;;;10.47;100.00
38716;BME280;24833;49.324;8.694;2023-11-19T06:13:27;99530.66;;;10.47;100.00
38716;BME280;24833;49.324;8.694;2023-11-19T06:15:58;99530.28;;;10.50;100.00
38716;BME280;24833;49.324;8.694;2023-11-19T06:18:25;99528.22;;;10.52;100.00
38716;BME280;24833;49.324;8.694;2023-11-19T06:20:52;99531.72;;;10.53;100.00
38716;BME280;24833;49.324;8.694;2023-11-19T06:23:19;99533.16;;;10.55;100.00
38716;BME280;24833;49.324;8.694;2023-11-19T06:25:46;99545.47;;;10.56;100.00
38716;BME280;24833;49.324;8.694;2023-11-19T06:28:13;99554.13;;;10.58;100.00
38716;BME280;24833;49.324;8.694;2023-11-19T06:30:41;99561.13;;;10.59;100.00
38716;BME280;24833;49.324;8.694;2023-11-19T06:33:08;99569.72;;;10.61;100.00
38716;BME280;24833;49.324;8.694;2023-11-19T06:35:35;99557.03;;;10.63;100.00
38716;BME280;24833;49.324;8.694;2023-11-19T06:38:03;99545.09;;;10.66;100.00
38716;BME280;24833;49.324;8.694;2023-11-19T06:40:34;99556.41;;;10.68;100.00
38716;BME280;24833;49.324;8.694;2023-11-19T06:43:04;99555.19;;;10.71;100.00
38716;BME280;24833;49.324;8.694;2023-11-19T06:45:32;99549.66;;;10.72;100.00
38716;BME280;24833;49.324;8.694;2023-11-19T06:48:03;99554.78;;;10.74;100.00
38716;BME280;24833;49.324;8.694;2023-11-19T06:50:32;99551.72;;;10.77;100.00
38716;BME280;24833;49.324;8.694;2023-11-19T06:52:59;99559.53;;;10.78;100.00
38716;BME280;24833;49.324;8.694;2023-11-19T06:55:26;99564.66;;;10.80;100.00
38716;BME280;24833;49.324;8.694;2023-11-19T06:57:54;99559.91;;;10.82;100.00
38716;BME280;24833;49.324;8.694;2023-11-19T07:00:21;99567.75;;;10.83;100.00
38716;BME280;24833;49.324;8.694;2023-11-19T07:02:48;99571.88;;;10.86;100.00
38716;BME280;24833;49.324;8.694;2023-11-19T07:05:16;99569.81;;;10.88;100.00
38716;BME280;24833;49.324;8.694;2023-11-19T07:07:43;99582.94;;;10.89;100.00
38716;BME280;24833;49.324;8.694;2023-11-19T07:10:13;99584.63;;;10.90;100.00
38716;BME280;24833;49.324;8.694;2023-11-19T07:12:40;99580.91;;;10.91;100.00
38716;BME280;24833;49.324;8.694;2023-11-19T07:15:09;99585.03;;;10.94;100.00
38716;BME280;24833;49.324;8.694;2023-11-19T07:17:36;99599.00;;;10.96;100.00
38716;BME280;24833;49.324;8.694;2023-11-19T07:20:05;99591.63;;;10.98;100.00
38716;BME280;24833;49.324;8.694;2023-11-19T07:22:32;99593.25;;;10.99;100.00
38716;BME280;24833;49.324;8.694;2023-11-19T07:24:59;99585.84;;;11.01;100.00
38716;BME280;24833;49.324;8.694;2023-11-19T07:27:26;99588.31;;;11.03;100.00
38716;BME280;24833;49.324;8.694;2023-11-19T07:29:54;99595.34;;;11.04;100.00
38716;BME280;24833;49.324;8.694;2023-11-19T07:32:21;99598.81;;;11.04;100.00
38716;BME280;24833;49.324;8.694;2023-11-19T07:34:48;99599.44;;;11.06;100.00
38716;BME280;24833;49.324;8.694;2023-11-19T07:37:15;99610.75;;;11.08;100.00
38716;BME280;24833;49.324;8.694;2023-11-19T07:39:43;99602.72;;;11.08;100.00
38716;BME280;24833;49.324;8.694;2023-11-19T07:42:11;99613.03;;;11.11;100.00
38716;BME280;24833;49.324;8.694;2023-11-19T07:44:38;99614.66;;;11.12;100.00
38716;BME280;24833;49.324;8.694;2023-11-19T07:47:05;99609.94;;;11.14;100.00
38716;BME280;24833;49.324;8.694;2023-11-19T07:49:32;99613.22;;;11.16;100.00
38716;BME280;24833;49.324;8.694;2023-11-19T07:51:59;99618.38;;;11.18;100.00
38716;BME280;24833;49.324;8.694;2023-11-19T07:54:26;99619.19;;;11.18;100.00
38716;BME280;24833;49.324;8.694;2023-11-19T07:56:53;99607.28;;;11.21;100.00
38716;BME280;24833;49.324;8.694;2023-11-19T07:59:21;99606.44;;;11.21;100.00
38716;BME280;24833;49.324;8.694;2023-11-19T08:01:48;99606.44;;;11.21;100.00
38716;BME280;24833;49.324;8.694;2023-11-19T08:04:15;99610.75;;;11.22;100.00
38716;BME280;24833;49.324;8.694;2023-11-19T08:06:42;99601.72;;;11.23;100.00
38716;BME280;24833;49.324;8.694;2023-11-19T08:09:09;99609.56;;;11.24;100.00
38716;BME280;24833;49.324;8.694;2023-11-19T08:11:43;99607.69;;;11.25;100.00
38716;BME280;24833;49.324;8.694;2023-11-19T08:14:11;99605.84;;;11.25;100.00
38716;BME280;24833;49.324;8.694;2023-11-19T08:16:39;99612.00;;;11.26;100.00
38716;BME280;24833;49.324;8.694;2023-11-19T08:19:07;99615.28;;;11.28;100.00
38716;BME280;24833;49.324;8.694;2023-11-19T08:21:36;99616.13;;;11.28;100.00
38716;BME280;24833;49.324;8.694;2023-11-19T08:24:04;99619.59;;;11.29;100.00
38716;BME280;24833;49.324;8.694;2023-11-19T08:26:31;99631.94;;;11.30;100.00
38716;BME280;24833;49.324;8.694;2023-11-19T08:28:58;99635.47;;;11.30;100.00
38716;BME280;24833;49.324;8.694;2023-11-19T08:31:25;99627.44;;;11.30;100.00
38716;BME280;24833;49.324;8.694;2023-11-19T08:33:52;99617.56;;;11.31;100.00
38716;BME280;24833;49.324;8.694;2023-11-19T08:36:19;99626.22;;;11.33;100.00
38716;BME280;24833;49.324;8.694;2023-11-19T08:38:47;99616.13;;;11.35;100.00
38716;BME280;24833;49.324;8.694;2023-11-19T08:41:16;99617.59;;;11.37;100.00
38716;BME280;24833;49.324;8.694;2023-11-19T08:43:45;99623.31;;;11.41;100.00
38716;BME280;24833;49.324;8.694;2023-11-19T08:46:13;99631.97;;;11.43;100.00
38716;BME280;24833;49.324;8.694;2023-11-19T08:48:40;99631.16;;;11.49;100.00
38716;BME280;24833;49.324;8.694;2023-11-19T08:51:07;99632.38;;;11.53;100.00
38716;BME280;24833;49.324;8.694;2023-11-19T08:53:34;99632.78;;;11.57;100.00
38716;BME280;24833;49.324;8.694;2023-11-19T08:56:02;99632.78;;;11.63;100.00
38716;BME280;24833;49.324;8.694;2023-11-19T08:58:30;99633.00;;;11.68;100.00
38716;BME280;24833;49.324;8.694;2023-11-19T09:00:58;99634.25;;;11.72;100.00
38716;BME280;24833;49.324;8.694;2023-11-19T09:03:25;99638.13;;;11.77;100.00
38716;BME280;24833;49.324;8.694;2023-11-19T09:05:53;99641.06;;;11.82;100.00
38716;BME280;24833;49.324;8.694;2023-11-19T09:08:21;99634.28;;;11.86;100.00
38716;BME280;24833;49.324;8.694;2023-11-19T09:10:48;99644.53;;;11.89;100.00
38716;BME280;24833;49.324;8.694;2023-11-19T09:13:15;99647.84;;;11.91;100.00
38716;BME280;24833;49.324;8.694;2023-11-19T09:15:42;99648.47;;;11.93;100.00
38716;BME280;24833;49.324;8.694;2023-11-19T09:18:09;99651.53;;;11.96;100.00
38716;BME280;24833;49.324;8.694;2023-11-19T09:20:36;99648.66;;;11.98;100.00
38716;BME280;24833;49.324;8.694;2023-11-19T09:23:06;99653.00;;;11.99;100.00
38716;BME280;24833;49.324;8.694;2023-11-19T09:25:33;99656.28;;;12.01;100.00
38716;BME280;24833;49.324;8.694;2023-11-19T09:28:03;99656.06;;;12.03;100.00
38716;BME280;24833;49.324;8.694;2023-11-19T09:30:30;99647.22;;;12.02;100.00
38716;BME280;24833;49.324;8.694;2023-11-19T09:33:00;99650.53;;;12.04;100.00
38716;BME280;24833;49.324;8.694;2023-11-19T09:35:28;99651.34;;;12.05;100.00
38716;BME280;24833;49.324;8.694;2023-11-19T09:37:55;99657.50;;;12.05;100.00
38716;BME280;24833;49.324;8.694;2023-11-19T09:40:22;99648.44;;;12.06;100.00
38716;BME280;24833;49.324;8.694;2023-11-19T09:42:49;99641.03;;;12.08;100.00
38716;BME280;24833;49.324;8.694;2023-11-19T09:45:17;99638.94;;;12.10;100.00
38716;BME280;24833;49.324;8.694;2023-11-19T09:47:47;99640.63;;;12.11;100.00
38716;BME280;24833;49.324;8.694;2023-11-19T09:50:17;99643.91;;;12.13;100.00
38716;BME280;24833;49.324;8.694;2023-11-19T09:52:46;99635.44;;;12.16;100.00
38716;BME280;24833;49.324;8.694;2023-11-19T09:55:14;99639.78;;;12.17;100.00
38716;BME280;24833;49.324;8.694;2023-11-19T09:57:41;99641.22;;;12.20;100.00
38716;BME280;24833;49.324;8.694;2023-11-19T10:00:13;99637.28;;;12.22;100.00
38716;BME280;24833;49.324;8.694;2023-11-19T10:02:43;99633.38;;;12.25;100.00
38716;BME280;24833;49.324;8.694;2023-11-19T10:05:14;99638.53;;;12.26;100.00
38716;BME280;24833;49.324;8.694;2023-11-19T10:07:41;99641.41;;;12.32;100.00
38716;BME280;24833;49.324;8.694;2023-11-19T10:10:09;99641.78;;;12.35;100.00
38716;BME280;24833;49.324;8.694;2023-11-19T10:12:40;99633.13;;;12.40;100.00
38716;BME280;24833;49.324;8.694;2023-11-19T10:15:25;99648.38;;;12.46;100.00
38716;BME280;24833;49.324;8.694;2023-11-19T10:17:57;99633.50;;;12.50;100.00
38716;BME280;24833;49.324;8.694;2023-11-19T10:20:25;99642.53;;;12.55;100.00
38716;BME280;24833;49.324;8.694;2023-11-19T10:22:54;99632.25;;;12.59;100.00
38716;BME280;24833;49.324;8.694;2023-11-19T10:25:26;99635.13;;;12.64;100.00
38716;BME280;24833;49.324;8.694;2023-11-19T10:27:56;99633.63;;;12.68;100.00
38716;BME280;24833;49.324;8.694;2023-11-19T10:30:26;99629.50;;;12.72;100.00
38716;BME280;24833;49.324;8.694;2023-11-19T10:33:13;99631.94;;;12.80;100.00
38716;BME280;24833;49.324;8.694;2023-11-19T10:35:56;99627.38;;;12.88;100.00
38716;BME280;24833;49.324;8.694;2023-11-19T10:38:26;99616.25;;;12.91;100.00
38716;BME280;24833;49.324;8.694;2023-11-19T10:40:54;99617.03;;;12.98;100.00
38716;BME280;24833;49.324;8.694;2023-11-19T10:43:22;99616.16;;;13.04;100.00
38716;BME280;24833;49.324;8.694;2023-11-19T10:45:50;99617.94;;;13.10;100.00
38716;BME280;24833;49.324;8.694;2023-11-19T10:48:18;99600.19;;;13.16;100.00
38716;BME280;24833;49.324;8.694;2023-11-19T10:50:53;99610.31;;;13.20;100.00
38716;BME280;24833;49.324;8.694;2023-11-19T10:53:23;99607.56;;;13.27;100.00
38716;BME280;24833;49.324;8.694;2023-11-19T10:55:57;99610.44;;;13.32;100.00
38716;BME280;24833;49.324;8.694;2023-11-19T10:58:28;99591.00;;;13.36;100.00
38716;BME280;24833;49.324;8.694;2023-11-19T11:01:09;99590.13;;;13.43;100.00
38716;BME280;24833;49.324;8.694;2023-11-19T11:03:40;99591.34;;;13.47;100.00
38716;BME280;24833;49.324;8.694;2023-11-19T11:06:08;99592.56;;;13.51;100.00
38716;BME280;24833;49.324;8.694;2023-11-19T11:08:39;99585.69;;;13.55;100.00
38716;BME280;24833;49.324;8.694;2023-11-19T11:11:08;99589.59;;;13.59;100.00
38716;BME280;24833;49.324;8.694;2023-11-19T11:13:37;99588.09;;;13.63;100.00
38716;BME280;24833;49.324;8.694;2023-11-19T11:16:09;99591.59;;;13.63;100.00
38716;BME280;24833;49.324;8.694;2023-11-19T11:18:36;99595.09;;;13.64;100.00
38716;BME280;24833;49.324;8.694;2023-11-19T11:21:09;99596.13;;;13.63;100.00
38716;BME280;24833;49.324;8.694;2023-11-19T11:24:07;99590.19;;;13.61;100.00
38716;BME280;24833;49.324;8.694;2023-11-19T11:30:11;99588.97;;;13.57;100.00
38716;BME280;24833;49.324;8.694;2023-11-19T11:36:22;99590.28;;;13.48;100.00
38716;BME280;24833;49.324;8.694;2023-11-19T11:38:50;99573.59;;;13.46;100.00
38716;BME280;24833;49.324;8.694;2023-11-19T11:41:22;99585.97;;;13.47;100.00
38716;BME280;24833;49.324;8.694;2023-11-19T11:43:54;99573.59;;;13.46;100.00
38716;BME280;24833;49.324;8.694;2023-11-19T11:49:05;99557.50;;;13.46;100.00
38716;BME280;24833;49.324;8.694;2023-11-19T11:57:12;99553.78;;;13.47;100.00
38716;BME280;24833;49.324;8.694;2023-11-19T12:02:14;99544.91;;;13.46;100.00
38716;BME280;24833;49.324;8.694;2023-11-19T12:04:46;99557.28;;;13.47;100.00
38716;BME280;24833;49.324;8.694;2023-11-19T12:07:19;99558.09;;;13.48;100.00
38716;BME280;24833;49.324;8.694;2023-11-19T12:10:08;99555.00;;;13.51;100.00
38716;BME280;24833;49.324;8.694;2023-11-19T12:12:36;99554.75;;;13.52;100.00
38716;BME280;24833;49.324;8.694;2023-11-19T12:15:09;99558.28;;;13.53;100.00
38716;BME280;24833;49.324;8.694;2023-11-19T12:17:49;99554.53;;;13.54;100.00
38716;BME280;24833;49.324;8.694;2023-11-19T12:20:19;99567.13;;;13.53;100.00
38716;BME280;24833;49.324;8.694;2023-11-19T12:22:51;99563.25;;;13.49;100.00
38716;BME280;24833;49.324;8.694;2023-11-19T12:25:19;99559.16;;;13.47;100.00
38716;BME280;24833;49.324;8.694;2023-11-19T12:27:50;99557.72;;;13.44;100.00
38716;BME280;24833;49.324;8.694;2023-11-19T12:30:28;99554.00;;;13.45;100.00
38716;BME280;24833;49.324;8.694;2023-11-19T12:32:57;99549.47;;;13.46;100.00
38716;BME280;24833;49.324;8.694;2023-11-19T12:35:25;99552.72;;;13.48;100.00
38716;BME280;24833;49.324;8.694;2023-11-19T12:37:52;99555.81;;;13.51;100.00
38716;BME280;24833;49.324;8.694;2023-11-19T12:40:25;99552.91;;;13.53;100.00
38716;BME280;24833;49.324;8.694;2023-11-19T12:42:53;99538.22;;;13.55;100.00
38716;BME280;24833;49.324;8.694;2023-11-19T12:45:21;99539.66;;;13.58;100.00
38716;BME280;24833;49.324;8.694;2023-11-19T12:48:08;99535.47;;;13.62;100.00
38716;BME280;24833;49.324;8.694;2023-11-19T12:50:56;99534.41;;;13.63;100.00
38716;BME280;24833;49.324;8.694;2023-11-19T12:53:26;99537.72;;;13.65;100.00
38716;BME280;24833;49.324;8.694;2023-11-19T12:55:54;99528.00;;;13.64;100.00
38716;BME280;24833;49.324;8.694;2023-11-19T12:58:34;99512.97;;;13.63;100.00
38716;BME280;24833;49.324;8.694;2023-11-19T13:01:06;99516.91;;;13.60;100.00
38716;BME280;24833;49.324;8.694;2023-11-19T13:03:36;99516.09;;;13.60;100.00
38716;BME280;24833;49.324;8.694;2023-11-19T13:06:11;99512.19;;;13.56;100.00
38716;BME280;24833;49.324;8.694;2023-11-19T13:08:48;99513.25;;;13.55;100.00
38716;BME280;24833;49.324;8.694;2023-11-19T13:11:32;99508.75;;;13.49;100.00
38716;BME280;24833;49.324;8.694;2023-11-19T13:14:01;99509.22;;;13.46;100.00
38716;BME280;24833;49.324;8.694;2023-11-19T13:16:30;99498.72;;;13.44;100.00
38716;BME280;24833;49.324;8.694;2023-11-19T13:18:58;99510.69;;;13.42;100.00
38716;BME280;24833;49.324;8.694;2023-11-19T13:21:27;99501.06;;;13.34;100.00